Time;durP1;ratioP1;P1;durP2;ratioP2;P2;SDS_P1;SDS_P2;PMS_P1;PMS_P2;Temp;Humidity;BMP_temperature;BMP_pressure;BME280_temperature;BME280_humidity;BME280_pressure;Samples;Min_cycle;Max_cycle;Signal;HPM_P1;HPM_P2
2022/11/23 00:01:18;;;;;;;13.32;4.45;;;5.20;99.90;;;;;;4947354;28;20039;-82
2022/11/23 00:03:49;;;;;;;22.63;5.53;;;5.20;99.90;;;;;;4956539;28;20034;-83
2022/11/23 00:06:15;;;;;;;10.45;4.50;;;5.20;99.90;;;;;;4951780;28;20055;-83
2022/11/23 00:08:44;;;;;;;12.90;4.50;;;5.20;99.90;;;;;;4950789;28;20027;-82
2022/11/23 00:11:10;;;;;;;11.82;4.45;;;5.10;99.90;;;;;;4951340;28;20094;-82
2022/11/23 00:13:39;;;;;;;13.10;4.30;;;5.10;99.90;;;;;;4952137;28;20066;-82
2022/11/23 00:16:13;;;;;;;13.48;5.00;;;5.10;99.90;;;;;;4952495;28;20527;-79
2022/11/23 00:18:38;;;;;;;9.15;3.92;;;5.10;99.90;;;;;;4948679;28;20408;-82
2022/11/23 00:21:09;;;;;;;11.10;4.05;;;5.10;99.90;;;;;;4949704;28;21361;-82
2022/11/23 00:23:38;;;;;;;7.50;3.55;;;5.10;99.90;;;;;;4956503;28;20033;-82
2022/11/23 00:26:04;;;;;;;10.45;3.78;;;5.00;99.90;;;;;;4950419;28;20034;-82
2022/11/23 00:28:30;;;;;;;13.15;3.78;;;5.00;99.90;;;;;;4960697;28;20019;-82
2022/11/23 00:30:56;;;;;;;14.55;4.22;;;5.00;99.90;;;;;;4952222;28;21167;-81
2022/11/23 00:33:22;;;;;;;11.63;4.18;;;5.00;99.90;;;;;;4952204;28;20039;-81
2022/11/23 00:35:57;;;;;;;20.55;4.90;;;5.00;99.90;;;;;;4948175;28;20027;-82
2022/11/23 00:38:22;;;;;;;12.52;5.35;;;5.00;99.90;;;;;;4950135;28;20037;-82
2022/11/23 00:40:48;;;;;;;14.82;4.10;;;5.10;99.90;;;;;;4953946;28;20109;-81
2022/11/23 00:43:13;;;;;;;15.50;4.50;;;5.00;99.90;;;;;;4950467;28;20040;-82
2022/11/23 00:45:42;;;;;;;16.38;4.57;;;5.00;99.90;;;;;;4952887;28;20027;-82
2022/11/23 00:48:07;;;;;;;12.55;4.05;;;5.00;99.90;;;;;;4948248;28;20035;-82
2022/11/23 00:50:39;;;;;;;21.25;4.30;;;4.90;99.90;;;;;;4950106;28;20030;-82
2022/11/23 00:53:05;;;;;;;13.70;4.72;;;4.90;99.90;;;;;;4951799;28;20043;-82
2022/11/23 00:55:30;;;;;;;11.25;3.72;;;4.90;99.90;;;;;;4952331;28;20027;-82
2022/11/23 00:57:57;;;;;;;14.00;3.55;;;4.80;99.90;;;;;;4956461;28;20111;-80
2022/11/23 01:00:23;;;;;;;11.02;3.92;;;4.80;99.90;;;;;;4951933;28;20031;-81
2022/11/23 01:02:48;;;;;;;15.88;4.00;;;4.80;99.90;;;;;;4953663;28;20098;-81
2022/11/23 01:05:14;;;;;;;9.93;3.70;;;4.80;99.90;;;;;;4952939;28;20022;-82
2022/11/23 01:07:39;;;;;;;12.07;4.18;;;4.70;99.90;;;;;;4950742;28;20019;-82
2022/11/23 01:10:07;;;;;;;8.45;3.70;;;4.70;99.90;;;;;;4953285;28;20015;-82
2022/11/23 01:12:32;;;;;;;14.60;3.38;;;4.60;99.90;;;;;;4960097;28;20026;-82
2022/11/23 01:14:58;;;;;;;8.48;3.22;;;4.70;99.90;;;;;;4953892;28;20038;-82
2022/11/23 01:17:24;;;;;;;19.17;4.43;;;4.60;99.90;;;;;;4949657;28;20451;-82
2022/11/23 01:19:52;;;;;;;8.90;3.92;;;4.70;99.90;;;;;;4948620;28;20019;-82
2022/11/23 01:22:19;;;;;;;11.82;5.07;;;4.60;99.90;;;;;;4953514;28;20051;-82
2022/11/23 01:24:44;;;;;;;9.68;4.32;;;4.60;99.90;;;;;;4951489;28;20479;-81
2022/11/23 01:27:10;;;;;;;10.52;4.32;;;4.60;99.90;;;;;;4951621;28;20023;-82
2022/11/23 01:29:35;;;;;;;13.45;4.72;;;4.60;99.90;;;;;;4959591;28;20117;-82
2022/11/23 01:32:01;;;;;;;9.95;3.72;;;4.60;99.90;;;;;;4951311;28;20029;-81
2022/11/23 01:34:27;;;;;;;11.25;4.05;;;4.50;99.90;;;;;;4958121;28;20083;-82
2022/11/23 01:36:52;;;;;;;9.85;4.05;;;4.50;99.90;;;;;;4952479;28;20082;-82
2022/11/23 01:39:18;;;;;;;10.50;3.85;;;4.50;99.90;;;;;;4950825;28;20121;-82
2022/11/23 01:41:44;;;;;;;15.75;4.13;;;4.50;99.90;;;;;;4949339;28;20042;-82
2022/11/23 01:44:30;;;;;;;8.85;3.40;;;4.40;99.90;;;;;;4964192;28;20027;-82
2022/11/23 01:46:59;;;;;;;14.93;5.28;;;4.40;99.90;;;;;;4947118;28;20027;-82
2022/11/23 01:49:26;;;;;;;14.52;4.03;;;4.30;99.90;;;;;;4953995;28;20074;-82
2022/11/23 01:51:55;;;;;;;6.00;2.95;;;4.20;99.90;;;;;;4954909;28;20113;-81
2022/11/23 01:54:29;;;;;;;4.75;2.75;;;4.10;99.90;;;;;;4948035;28;20046;-80
2022/11/23 01:56:59;;;;;;;10.75;4.00;;;4.10;99.90;;;;;;4959920;28;20138;-82
2022/11/23 01:59:27;;;;;;;9.27;3.15;;;4.00;99.90;;;;;;4951654;28;20277;-81
2022/11/23 02:05:28;;;;;;;8.63;3.95;;;3.90;99.90;;;;;;4941010;28;20050;-82
2022/11/23 02:07:54;;;;;;;14.57;4.65;;;3.90;99.90;;;;;;4943806;28;20035;-81
2022/11/23 02:10:21;;;;;;;13.05;3.95;;;3.90;99.90;;;;;;4954867;28;20420;-81
2022/11/23 02:12:47;;;;;;;14.15;3.88;;;3.90;99.90;;;;;;4957944;28;20027;-81
2022/11/23 02:15:13;;;;;;;7.72;3.45;;;3.90;99.90;;;;;;4956326;28;20027;-82
2022/11/23 02:17:38;;;;;;;9.27;3.63;;;3.90;99.90;;;;;;4946853;28;20031;-82
2022/11/23 02:20:09;;;;;;;9.75;4.70;;;3.90;99.90;;;;;;4948968;28;20039;-82
2022/11/23 02:23:14;;;;;;;5.72;3.60;;;3.90;99.90;;;;;;4950847;28;20094;-82
2022/11/23 02:25:43;;;;;;;9.18;4.55;;;3.90;99.90;;;;;;4947182;28;20469;-82
2022/11/23 02:28:13;;;;;;;8.82;3.28;;;3.90;99.90;;;;;;4951420;28;20034;-81
2022/11/23 02:30:40;;;;;;;5.93;3.20;;;4.00;99.90;;;;;;4947103;28;20110;-82
2022/11/23 02:33:06;;;;;;;12.82;3.72;;;4.00;99.90;;;;;;4946355;28;20066;-82
2022/11/23 02:35:32;;;;;;;4.85;3.03;;;4.00;99.90;;;;;;4948962;28;20090;-82
2022/11/23 02:38:01;;;;;;;13.38;3.83;;;4.00;99.90;;;;;;4949932;28;20022;-82
2022/11/23 02:40:31;;;;;;;9.27;3.42;;;4.00;99.90;;;;;;4951433;28;20416;-82
2022/11/23 02:42:57;;;;;;;10.38;2.97;;;4.00;99.90;;;;;;4953685;28;20491;-81
2022/11/23 02:45:32;;;;;;;7.72;3.60;;;3.90;99.90;;;;;;4952850;28;20032;-82
2022/11/23 02:47:58;;;;;;;9.27;3.55;;;3.90;99.90;;;;;;4946921;28;20493;-82
2022/11/23 02:50:23;;;;;;;4.93;2.75;;;3.90;99.90;;;;;;4945470;28;20042;-81
2022/11/23 02:52:49;;;;;;;4.63;2.67;;;3.80;99.90;;;;;;4949581;28;20481;-82
2022/11/23 02:55:15;;;;;;;7.40;3.40;;;3.80;99.90;;;;;;4945925;28;20082;-83
2022/11/23 02:57:40;;;;;;;7.47;3.28;;;3.70;99.90;;;;;;4946637;28;20046;-81
2022/11/23 03:00:08;;;;;;;8.25;3.08;;;3.70;99.90;;;;;;4950786;28;20023;-79
2022/11/23 03:02:33;;;;;;;4.13;2.72;;;3.60;99.90;;;;;;4955493;28;20284;-82
2022/11/23 03:04:59;;;;;;;10.10;3.83;;;3.50;99.90;;;;;;4960695;28;20038;-81
2022/11/23 03:07:24;;;;;;;9.95;3.63;;;3.40;99.90;;;;;;4956950;28;20035;-82
2022/11/23 03:09:50;;;;;;;9.25;3.70;;;3.50;99.90;;;;;;4955931;28;20020;-82
2022/11/23 03:12:18;;;;;;;9.25;3.80;;;3.40;99.90;;;;;;4951819;28;20110;-82
2022/11/23 03:14:44;;;;;;;8.65;3.45;;;3.40;99.90;;;;;;4950711;28;20054;-82
2022/11/23 03:17:10;;;;;;;13.38;3.58;;;3.40;99.90;;;;;;4960321;28;20022;-82
2022/11/23 03:19:35;;;;;;;11.88;4.57;;;3.40;99.90;;;;;;4960272;28;20031;-81
2022/11/23 03:22:01;;;;;;;12.07;4.10;;;3.50;99.90;;;;;;4952578;28;20130;-82
2022/11/23 03:24:26;;;;;;;9.23;3.83;;;3.40;99.90;;;;;;4948419;28;20042;-82
2022/11/23 03:26:52;;;;;;;5.78;3.67;;;3.50;99.90;;;;;;4959903;28;20077;-80
2022/11/23 03:29:25;;;;;;;16.33;6.00;;;3.50;99.90;;;;;;4948547;28;20032;-82
2022/11/23 03:31:51;;;;;;;14.65;4.93;;;3.50;99.90;;;;;;4950001;28;20034;-82
2022/11/23 03:34:23;;;;;;;16.52;4.50;;;3.50;99.90;;;;;;4955380;28;20071;-82
2022/11/23 03:36:49;;;;;;;9.93;4.78;;;3.50;99.90;;;;;;4954671;28;20027;-82
2022/11/23 03:39:17;;;;;;;9.35;5.15;;;3.40;99.90;;;;;;4957094;28;20049;-82
2022/11/23 03:41:43;;;;;;;19.48;6.07;;;3.40;99.90;;;;;;4944447;28;20035;-82
2022/11/23 03:44:09;;;;;;;12.52;5.20;;;3.50;99.90;;;;;;4952666;28;20526;-81
2022/11/23 03:46:34;;;;;;;8.35;5.22;;;3.40;99.90;;;;;;4953538;28;20293;-82
2022/11/23 03:49:00;;;;;;;13.07;6.22;;;3.50;99.90;;;;;;4950263;28;20019;-82
2022/11/23 03:51:25;;;;;;;19.67;5.88;;;3.50;99.90;;;;;;4939158;28;20121;-82
2022/11/23 03:53:51;;;;;;;15.85;5.60;;;3.50;99.90;;;;;;4953396;28;20039;-82
2022/11/23 03:56:23;;;;;;;18.73;6.07;;;3.40;99.90;;;;;;4954747;28;20027;-81
2022/11/23 03:58:49;;;;;;;14.00;5.28;;;3.40;99.90;;;;;;4952862;28;20468;-81
2022/11/23 04:01:21;;;;;;;13.23;5.30;;;3.50;99.90;;;;;;4953766;28;20034;-82
2022/11/23 04:03:46;;;;;;;10.77;4.68;;;3.50;99.90;;;;;;4957212;28;20376;-82
2022/11/23 04:06:12;;;;;;;17.70;5.32;;;3.60;99.90;;;;;;4945804;28;20027;-81
2022/11/23 04:08:37;;;;;;;12.73;5.13;;;3.60;99.90;;;;;;4952377;28;20031;-82
2022/11/23 04:11:03;;;;;;;7.13;3.75;;;3.60;99.90;;;;;;4948593;28;20552;-82
2022/11/23 04:13:28;;;;;;;14.48;4.90;;;3.70;99.90;;;;;;4948742;28;20055;-80
2022/11/23 04:15:54;;;;;;;13.50;5.22;;;3.70;99.90;;;;;;4951477;28;20054;-82
2022/11/23 04:18:26;;;;;;;11.95;4.55;;;3.80;99.90;;;;;;4949423;28;20038;-81
2022/11/23 04:20:51;;;;;;;8.00;4.47;;;3.90;99.90;;;;;;4958811;28;20039;-80
2022/11/23 04:23:26;;;;;;;10.43;4.57;;;3.80;99.90;;;;;;4959664;28;20089;-82
2022/11/23 04:25:52;;;;;;;14.02;4.93;;;3.90;99.90;;;;;;4948396;28;20083;-81
2022/11/23 04:28:17;;;;;;;14.68;4.82;;;3.90;99.90;;;;;;4949191;28;20384;-82
2022/11/23 04:30:43;;;;;;;9.63;4.30;;;3.90;99.90;;;;;;4946977;28;20019;-81
2022/11/23 04:33:09;;;;;;;10.20;4.57;;;3.90;99.90;;;;;;4947831;28;20542;-81
2022/11/23 04:35:35;;;;;;;12.90;4.65;;;3.90;99.90;;;;;;4951496;28;20126;-81
2022/11/23 04:38:01;;;;;;;16.55;4.93;;;3.90;99.90;;;;;;4955461;28;20023;-82
2022/11/23 04:40:30;;;;;;;11.52;4.40;;;3.90;99.90;;;;;;4950598;28;20495;-83
2022/11/23 04:42:57;;;;;;;10.10;4.97;;;4.00;99.90;;;;;;4956641;28;20050;-79
2022/11/23 04:45:23;;;;;;;14.80;5.40;;;4.00;99.90;;;;;;4950175;28;20481;-82
2022/11/23 04:47:49;;;;;;;11.48;5.03;;;4.10;99.90;;;;;;4949723;28;20038;-82
2022/11/23 04:50:15;;;;;;;25.65;6.10;;;4.10;99.90;;;;;;4945213;28;20032;-82
2022/11/23 04:52:40;;;;;;;11.82;5.10;;;4.10;99.90;;;;;;4953882;28;20027;-81
2022/11/23 04:55:06;;;;;;;15.10;5.60;;;4.20;99.90;;;;;;4951068;28;20023;-82
2022/11/23 04:57:32;;;;;;;10.60;4.72;;;4.40;99.90;;;;;;4945785;28;20063;-82
2022/11/23 04:59:58;;;;;;;22.20;5.35;;;4.40;99.90;;;;;;4952109;28;20028;-83
2022/11/23 05:02:26;;;;;;;11.20;4.38;;;4.50;99.90;;;;;;4957229;28;20458;-81
2022/11/23 05:04:51;;;;;;;18.50;4.65;;;4.50;99.90;;;;;;4947199;28;20434;-82
2022/11/23 05:07:17;;;;;;;20.45;5.68;;;4.60;99.90;;;;;;4960677;28;20437;-81
2022/11/23 05:09:43;;;;;;;15.02;4.63;;;4.70;99.90;;;;;;4952573;28;20030;-83
2022/11/23 05:12:08;;;;;;;15.70;5.57;;;4.80;99.90;;;;;;4951440;28;20015;-81
2022/11/23 05:14:34;;;;;;;18.63;4.30;;;4.90;99.90;;;;;;4949610;28;20122;-82
2022/11/23 05:17:00;;;;;;;12.63;4.13;;;5.00;99.90;;;;;;4947375;28;20027;-82
2022/11/23 05:19:25;;;;;;;12.65;3.97;;;5.10;99.90;;;;;;4952704;28;20070;-81
2022/11/23 05:21:51;;;;;;;19.25;5.20;;;5.10;99.90;;;;;;4949417;28;20039;-82
2022/11/23 05:24:19;;;;;;;16.90;4.13;;;5.10;99.90;;;;;;4956893;28;20027;-82
2022/11/23 05:26:45;;;;;;;14.80;3.95;;;5.20;99.90;;;;;;4948760;28;20042;-82
2022/11/23 05:29:10;;;;;;;14.57;4.57;;;5.30;99.90;;;;;;4953597;28;20026;-81
2022/11/23 05:31:36;;;;;;;14.38;4.55;;;5.30;99.90;;;;;;4952504;28;20026;-81
2022/11/23 05:34:04;;;;;;;16.88;4.68;;;5.30;99.90;;;;;;4948574;28;20043;-81
2022/11/23 05:36:30;;;;;;;20.65;7.07;;;5.30;99.90;;;;;;4951704;28;20384;-82
2022/11/23 05:38:56;;;;;;;12.95;3.75;;;5.30;99.90;;;;;;4951858;28;20038;-82
2022/11/23 05:41:21;;;;;;;19.63;4.47;;;5.30;99.90;;;;;;4956725;28;20477;-82
2022/11/23 05:43:47;;;;;;;17.75;3.85;;;5.40;99.90;;;;;;4946266;28;20085;-82
2022/11/23 05:46:12;;;;;;;18.38;4.80;;;5.40;99.90;;;;;;4958390;28;20027;-82
2022/11/23 05:48:38;;;;;;;13.00;3.88;;;5.40;99.90;;;;;;4941886;28;20062;-82
2022/11/23 05:51:03;;;;;;;13.70;4.00;;;5.40;99.90;;;;;;4954424;28;20023;-81
2022/11/23 05:53:29;;;;;;;12.70;4.72;;;5.40;99.90;;;;;;4928105;29;20190;-83
2022/11/23 05:56:04;;;;;;;21.65;4.93;;;5.40;99.90;;;;;;4945964;28;20150;-81
2022/11/23 05:58:30;;;;;;;21.10;5.10;;;5.40;99.90;;;;;;4943474;28;20521;-83
2022/11/23 06:00:59;;;;;;;14.20;4.30;;;5.40;99.90;;;;;;4948807;28;20031;-83
2022/11/23 06:03:25;;;;;;;11.75;4.15;;;5.50;99.90;;;;;;4946602;28;20507;-83
2022/11/23 06:05:51;;;;;;;18.15;5.22;;;5.40;99.90;;;;;;4946236;28;20133;-83
2022/11/23 06:08:17;;;;;;;12.48;3.88;;;5.40;99.90;;;;;;4948105;28;20058;-83
2022/11/23 06:10:43;;;;;;;15.73;3.88;;;5.40;99.90;;;;;;4941741;28;20031;-82
2022/11/23 06:13:08;;;;;;;15.63;3.90;;;5.40;99.90;;;;;;4939591;28;20043;-84
2022/11/23 06:15:34;;;;;;;21.85;4.55;;;5.40;99.90;;;;;;4953565;28;20295;-81
2022/11/23 06:18:00;;;;;;;15.88;4.30;;;5.40;99.90;;;;;;4953407;28;20154;-79
2022/11/23 06:20:28;;;;;;;14.27;4.50;;;5.40;99.90;;;;;;4955274;28;20113;-81
2022/11/23 06:22:54;;;;;;;18.17;5.13;;;5.40;99.90;;;;;;4947847;28;20392;-83
2022/11/23 06:25:23;;;;;;;10.95;3.95;;;5.40;99.90;;;;;;4963949;28;20031;-82
2022/11/23 06:27:57;;;;;;;14.65;4.13;;;5.50;99.90;;;;;;4945704;28;20509;-84
2022/11/23 06:30:27;;;;;;;11.60;4.40;;;5.40;99.90;;;;;;4952965;28;20053;-82
2022/11/23 06:32:53;;;;;;;14.90;4.90;;;5.40;99.90;;;;;;4952935;28;20027;-82
2022/11/23 06:35:19;;;;;;;12.70;4.75;;;5.40;99.90;;;;;;4949422;28;20376;-85
2022/11/23 06:37:48;;;;;;;12.55;4.38;;;5.40;99.90;;;;;;4948622;28;20035;-82
2022/11/23 06:40:14;;;;;;;15.15;4.28;;;5.50;99.90;;;;;;4955274;28;20027;-82
2022/11/23 06:42:39;;;;;;;8.38;4.07;;;5.50;99.90;;;;;;4956756;28;20032;-83
2022/11/23 06:45:05;;;;;;;13.95;4.07;;;5.50;99.90;;;;;;4950180;28;20468;-82
2022/11/23 06:47:31;;;;;;;13.38;5.22;;;5.50;99.90;;;;;;4952225;28;20380;-85
2022/11/23 06:49:57;;;;;;;18.23;3.97;;;5.50;99.90;;;;;;4958429;28;20043;-83
2022/11/23 06:52:22;;;;;;;10.88;4.38;;;5.60;99.90;;;;;;4945754;28;20041;-84
2022/11/23 06:54:48;;;;;;;12.07;4.10;;;5.60;99.90;;;;;;4948636;28;20488;-81
2022/11/23 06:57:13;;;;;;;12.50;3.83;;;5.60;99.90;;;;;;4952108;28;20448;-84
2022/11/23 06:59:39;;;;;;;18.95;5.40;;;5.60;99.90;;;;;;4954507;28;20384;-82
2022/11/23 07:02:05;;;;;;;19.23;4.18;;;5.60;99.90;;;;;;4953824;28;20123;-82
2022/11/23 07:04:30;;;;;;;11.40;4.03;;;5.70;99.90;;;;;;4948319;28;20027;-82
2022/11/23 07:06:56;;;;;;;16.75;4.15;;;5.70;99.90;;;;;;4955798;28;20027;-84
2022/11/23 07:09:22;;;;;;;18.88;4.22;;;5.70;99.90;;;;;;4949811;28;20019;-80
2022/11/23 07:11:48;;;;;;;9.65;4.00;;;5.70;99.90;;;;;;4949678;28;20525;-82
2022/11/23 07:14:14;;;;;;;29.25;5.68;;;5.60;99.90;;;;;;4949622;28;20034;-81
2022/11/23 07:16:39;;;;;;;10.10;3.67;;;5.70;99.90;;;;;;4952626;28;20538;-83
2022/11/23 07:19:06;;;;;;;19.65;3.83;;;5.70;99.90;;;;;;4949679;28;20031;-83
2022/11/23 07:21:40;;;;;;;13.50;3.53;;;5.60;99.90;;;;;;4946930;28;20043;-82
2022/11/23 07:24:06;;;;;;;14.05;4.38;;;5.70;99.90;;;;;;4950398;28;20110;-83
2022/11/23 07:26:32;;;;;;;15.85;3.85;;;5.70;99.90;;;;;;4954425;28;20118;-80
2022/11/23 07:28:58;;;;;;;8.60;3.28;;;5.70;99.90;;;;;;4952003;28;20043;-84
2022/11/23 07:31:23;;;;;;;9.68;4.15;;;5.70;99.90;;;;;;4948563;28;20032;-83
2022/11/23 07:33:49;;;;;;;7.13;3.22;;;5.70;99.90;;;;;;4946121;28;20157;-83
2022/11/23 07:36:15;;;;;;;15.15;3.47;;;5.70;99.90;;;;;;4946371;28;20028;-84
2022/11/23 07:38:40;;;;;;;18.42;4.28;;;5.70;99.90;;;;;;4951930;28;20516;-83
2022/11/23 07:41:06;;;;;;;17.35;4.25;;;5.70;99.90;;;;;;4949920;28;20537;-84
2022/11/23 07:43:34;;;;;;;9.48;3.53;;;5.70;99.90;;;;;;4950327;28;20645;-82
2022/11/23 07:46:01;;;;;;;15.45;3.78;;;5.80;99.90;;;;;;4943261;28;20027;-81
2022/11/23 07:48:33;;;;;;;13.88;3.40;;;5.70;99.90;;;;;;4950730;28;20070;-83
2022/11/23 07:50:58;;;;;;;11.95;4.03;;;5.70;99.90;;;;;;4952169;28;20515;-83
2022/11/23 07:53:30;;;;;;;16.73;5.13;;;5.80;99.90;;;;;;4927977;29;21743;-83
2022/11/23 07:55:59;;;;;;;16.95;4.18;;;5.80;99.90;;;;;;4951607;28;20381;-83
2022/11/23 07:58:25;;;;;;;16.77;3.65;;;5.80;99.90;;;;;;4930869;29;20122;-82
2022/11/23 08:00:50;;;;;;;13.68;3.75;;;5.90;99.90;;;;;;4947030;28;20456;-84
2022/11/23 08:03:16;;;;;;;12.50;3.30;;;5.80;99.90;;;;;;4948898;28;20038;-83
2022/11/23 08:05:41;;;;;;;21.10;3.67;;;5.80;99.90;;;;;;4947475;28;20047;-83
2022/11/23 08:08:07;;;;;;;14.38;3.50;;;5.90;99.90;;;;;;4946779;28;20118;-83
2022/11/23 08:10:39;;;;;;;11.48;3.10;;;5.90;99.90;;;;;;4954062;28;20033;-85
2022/11/23 08:13:05;;;;;;;20.08;4.05;;;5.90;99.90;;;;;;4949146;28;20086;-83
2022/11/23 08:15:31;;;;;;;18.88;4.70;;;6.00;99.90;;;;;;4943630;28;20051;-81
2022/11/23 08:17:59;;;;;;;12.60;3.90;;;5.90;99.90;;;;;;4971281;23;20090;-81
2022/11/23 08:20:29;;;;;;;15.93;4.85;;;5.90;99.90;;;;;;4941307;28;20131;-83
2022/11/23 08:22:55;;;;;;;16.63;3.22;;;5.90;99.90;;;;;;4945145;28;20039;-82
2022/11/23 08:25:22;;;;;;;13.50;3.38;;;5.90;99.90;;;;;;4940439;29;20027;-83
2022/11/23 08:27:52;;;;;;;19.13;3.25;;;5.80;99.90;;;;;;4924602;29;20034;-83
2022/11/23 08:30:18;;;;;;;14.82;3.95;;;5.80;99.90;;;;;;4946403;28;20035;-83
2022/11/23 08:32:43;;;;;;;16.42;3.42;;;5.80;99.90;;;;;;4941636;28;20031;-84
2022/11/23 08:35:09;;;;;;;11.48;3.88;;;5.80;99.90;;;;;;4946676;29;20020;-83
2022/11/23 08:37:34;;;;;;;13.82;3.80;;;5.90;99.90;;;;;;4942231;28;20034;-83
2022/11/23 08:40:00;;;;;;;10.15;3.80;;;5.90;99.90;;;;;;4948176;29;20023;-83
2022/11/23 08:42:32;;;;;;;17.63;3.65;;;6.00;99.90;;;;;;4945311;28;20046;-83
2022/11/23 08:44:58;;;;;;;10.52;2.90;;;6.00;99.90;;;;;;4945874;28;20438;-83
2022/11/23 08:47:25;;;;;;;18.85;3.45;;;6.10;99.90;;;;;;4945085;28;20028;-83
2022/11/23 08:49:50;;;;;;;16.83;3.20;;;6.10;99.90;;;;;;4941377;28;20051;-82
2022/11/23 08:52:16;;;;;;;15.82;2.78;;;6.10;99.90;;;;;;4942104;28;20078;-83
2022/11/23 08:54:41;;;;;;;10.70;2.90;;;6.20;99.90;;;;;;4945218;28;20062;-82
2022/11/23 08:57:07;;;;;;;12.90;3.38;;;6.10;99.90;;;;;;4945538;28;20015;-83
2022/11/23 08:59:33;;;;;;;13.70;2.75;;;6.10;99.90;;;;;;4942867;28;20023;-83
2022/11/23 09:01:58;;;;;;;5.47;2.65;;;6.10;99.90;;;;;;4942819;29;20373;-82
2022/11/23 09:04:26;;;;;;;15.10;3.00;;;6.10;99.90;;;;;;4943220;28;20127;-81
2022/11/23 09:06:52;;;;;;;10.02;2.53;;;6.10;99.90;;;;;;4946461;29;20027;-81
2022/11/23 09:09:18;;;;;;;8.63;2.72;;;6.10;99.90;;;;;;4941768;28;20031;-83
2022/11/23 09:11:43;;;;;;;11.20;2.60;;;6.20;99.90;;;;;;4946452;28;20451;-83
2022/11/23 09:14:09;;;;;;;10.80;2.95;;;6.10;99.90;;;;;;4946935;28;20035;-83
2022/11/23 09:16:38;;;;;;;12.32;3.20;;;6.10;99.90;;;;;;4949595;28;20126;-83
2022/11/23 09:19:05;;;;;;;15.43;3.88;;;6.20;99.90;;;;;;4946699;29;20497;-83
2022/11/23 09:21:38;;;;;;;12.60;3.50;;;6.20;99.90;;;;;;4949124;29;20027;-83
2022/11/23 09:24:04;;;;;;;11.20;2.83;;;6.20;99.90;;;;;;4947065;29;20058;-83
2022/11/23 09:26:32;;;;;;;7.45;2.72;;;6.20;99.90;;;;;;4945045;29;20054;-83
2022/11/23 09:28:58;;;;;;;20.65;3.35;;;6.20;99.90;;;;;;4949498;29;20038;-83
2022/11/23 09:31:25;;;;;;;14.60;3.40;;;6.30;99.90;;;;;;4950471;29;20468;-82
2022/11/23 09:33:52;;;;;;;16.52;3.97;;;6.40;99.90;;;;;;4930778;29;20388;-83
2022/11/23 09:36:21;;;;;;;18.13;3.50;;;6.50;99.90;;;;;;4946037;28;20134;-83
2022/11/23 09:38:47;;;;;;;11.57;3.25;;;6.50;99.90;;;;;;4950310;29;20053;-85
2022/11/23 09:41:21;;;;;;;14.02;3.05;;;6.50;99.90;;;;;;4947281;28;20078;-83
2022/11/23 09:44:01;;;;;;;11.70;3.03;;;6.60;99.90;;;;;;4944228;29;20491;-80
2022/11/23 09:46:44;;;;;;;8.85;2.70;;;6.60;99.90;;;;;;4949269;29;20392;-83
2022/11/23 09:49:19;;;;;;;18.45;3.15;;;6.70;99.90;;;;;;4947505;28;20027;-82
2022/11/23 09:51:52;;;;;;;16.15;3.80;;;6.70;99.90;;;;;;4948052;28;20160;-83
2022/11/23 09:54:35;;;;;;;14.38;3.67;;;6.70;99.90;;;;;;4946371;29;20399;-83
2022/11/23 09:57:03;;;;;;;4.88;2.30;;;6.70;99.90;;;;;;4950105;28;20039;-83
2022/11/23 09:59:40;;;;;;;10.75;3.22;;;6.80;99.90;;;;;;4947590;29;20023;-83
2022/11/23 10:02:21;;;;;;;8.68;2.72;;;6.80;99.90;;;;;;4947735;28;20059;-84
2022/11/23 10:04:47;;;;;;;10.07;4.22;;;6.80;99.90;;;;;;4947371;28;20354;-83
2022/11/23 10:07:37;;;;;;;10.25;3.17;;;6.80;99.90;;;;;;4957837;28;20076;-83
2022/11/23 10:10:21;;;;;;;17.33;3.65;;;6.80;99.90;;;;;;4942087;28;20050;-81
2022/11/23 10:13:16;;;;;;;13.38;3.08;;;6.80;99.90;;;;;;4951943;28;20023;-83
2022/11/23 10:15:57;;;;;;;8.77;3.00;;;6.80;99.90;;;;;;4945307;28;20425;-83
2022/11/23 10:19:04;;;;;;;8.85;2.95;;;6.80;99.90;;;;;;4948482;28;20139;-83
2022/11/23 10:22:02;;;;;;;15.27;3.53;;;6.80;99.90;;;;;;4935051;29;20614;-83
2022/11/23 10:24:48;;;;;;;12.18;2.80;;;6.90;99.90;;;;;;4942173;29;20058;-82
2022/11/23 10:27:16;;;;;;;8.32;2.78;;;6.90;99.90;;;;;;4948633;29;20122;-83
2022/11/23 10:29:43;;;;;;;14.25;3.13;;;6.90;99.90;;;;;;4945442;29;20531;-81
2022/11/23 10:32:38;;;;;;;15.13;3.75;;;6.90;99.90;;;;;;4944634;28;20023;-82
2022/11/23 10:35:14;;;;;;;13.63;3.13;;;6.90;99.90;;;;;;4909656;29;20075;-81
2022/11/23 10:37:43;;;;;;;13.55;3.20;;;6.90;99.90;;;;;;4946892;29;20034;-83
2022/11/23 10:40:28;;;;;;;8.57;3.03;;;7.00;99.90;;;;;;4943428;28;20043;-84
2022/11/23 10:43:13;;;;;;;14.97;3.30;;;6.90;99.90;;;;;;4939648;28;20134;-83
2022/11/23 10:45:38;;;;;;;11.23;2.53;;;6.90;99.90;;;;;;4950080;28;20046;-83
2022/11/23 10:48:04;;;;;;;11.52;3.15;;;7.00;99.90;;;;;;4948807;28;20076;-83
2022/11/23 10:50:39;;;;;;;13.15;3.30;;;7.00;99.90;;;;;;4945842;28;20034;-82
2022/11/23 10:53:04;;;;;;;4.95;2.72;;;7.00;99.90;;;;;;4947739;28;20041;-83
2022/11/23 10:55:44;;;;;;;14.43;3.05;;;7.00;99.90;;;;;;4950365;28;20045;-83
2022/11/23 10:58:27;;;;;;;9.90;2.58;;;7.10;99.90;;;;;;4945541;28;20023;-82
2022/11/23 11:01:04;;;;;;;12.00;2.90;;;7.10;99.90;;;;;;4941599;28;20565;-84
2022/11/23 11:03:32;;;;;;;13.27;3.15;;;7.10;99.90;;;;;;4929243;29;20650;-83
2022/11/23 11:06:02;;;;;;;14.90;3.10;;;7.20;99.90;;;;;;4945753;28;20050;-81
2022/11/23 11:08:30;;;;;;;9.75;2.60;;;7.20;99.90;;;;;;4947173;28;20105;-83
2022/11/23 11:11:07;;;;;;;9.15;2.78;;;7.30;99.90;;;;;;4945876;28;20030;-83
2022/11/23 11:14:15;;;;;;;11.55;2.42;;;7.40;99.90;;;;;;4943972;28;20061;-82
2022/11/23 11:16:48;;;;;;;9.07;2.45;;;7.40;99.90;;;;;;4924843;28;20039;-84
2022/11/23 11:19:24;;;;;;;10.35;2.80;;;7.40;99.90;;;;;;4943042;28;20054;-83
2022/11/23 11:21:50;;;;;;;18.05;3.28;;;7.50;99.90;;;;;;4936875;28;20372;-83
2022/11/23 11:24:42;;;;;;;11.43;2.40;;;7.60;99.90;;;;;;4945093;28;20023;-84
2022/11/23 11:27:22;;;;;;;17.42;4.55;;;7.60;99.90;;;;;;4944479;28;20031;-82
2022/11/23 11:29:52;;;;;;;6.32;2.33;;;7.60;99.90;;;;;;4948791;28;20042;-83
2022/11/23 11:32:54;;;;;;;17.63;3.58;;;7.60;99.90;;;;;;4946180;28;20055;-83
2022/11/23 11:35:31;;;;;;;12.93;2.60;;;7.60;99.90;;;;;;4951385;28;20051;-82
2022/11/23 11:38:01;;;;;;;17.35;4.47;;;7.50;99.90;;;;;;4952622;28;20046;-84
2022/11/23 11:40:38;;;;;;;10.00;3.30;;;7.50;99.90;;;;;;4948566;28;20026;-83
2022/11/23 11:43:26;;;;;;;14.60;2.65;;;7.50;99.90;;;;;;4945627;28;20031;-83
2022/11/23 11:46:03;;;;;;;12.93;2.92;;;7.40;99.90;;;;;;4947787;29;20066;-83
2022/11/23 11:49:04;;;;;;;23.05;5.03;;;7.40;99.90;;;;;;4950407;28;20158;-83
2022/11/23 11:52:10;;;;;;;7.82;3.13;;;7.50;99.90;;;;;;4949291;28;20023;-82
2022/11/23 11:55:00;;;;;;;10.90;3.40;;;7.50;99.90;;;;;;4951463;28;20035;-83
2022/11/23 11:57:44;;;;;;;11.40;3.33;;;7.40;99.90;;;;;;4947545;29;20091;-82
2022/11/23 12:00:15;;;;;;;15.85;3.08;;;7.40;99.90;;;;;;4947011;28;20102;-82
2022/11/23 12:03:07;;;;;;;10.60;3.50;;;7.30;99.90;;;;;;4945786;28;20019;-82
2022/11/23 12:05:42;;;;;;;7.72;2.65;;;7.40;99.90;;;;;;4950228;28;20028;-85
2022/11/23 12:08:19;;;;;;;5.20;2.67;;;7.40;99.90;;;;;;4945567;28;20019;-81
2022/11/23 12:10:58;;;;;;;18.60;3.75;;;7.40;99.90;;;;;;4957971;28;20034;-82
2022/11/23 12:13:30;;;;;;;16.35;3.08;;;7.30;99.90;;;;;;4948823;28;20042;-83
2022/11/23 12:16:22;;;;;;;9.07;2.72;;;7.30;99.90;;;;;;4948752;28;20038;-82
2022/11/23 12:19:02;;;;;;;9.05;3.15;;;7.20;99.90;;;;;;4920685;29;20325;-83
2022/11/23 12:21:35;;;;;;;13.98;3.38;;;7.20;99.90;;;;;;4948450;28;20372;-83
2022/11/23 12:24:10;;;;;;;8.05;3.72;;;7.20;99.90;;;;;;4952562;28;20118;-83
2022/11/23 12:27:00;;;;;;;10.50;3.53;;;7.30;99.90;;;;;;4950730;28;20054;-83
2022/11/23 12:29:55;;;;;;;7.60;2.90;;;7.30;99.90;;;;;;4947340;29;20432;-84
2022/11/23 12:32:48;;;;;;;11.57;3.65;;;7.40;99.90;;;;;;4947916;29;20254;-83
2022/11/23 12:35:38;;;;;;;18.23;5.00;;;7.50;99.90;;;;;;4945636;28;20039;-84
2022/11/23 12:38:17;;;;;;;13.05;3.38;;;7.70;99.90;;;;;;4948240;28;20015;-83
2022/11/23 12:41:07;;;;;;;10.68;3.38;;;7.70;99.90;;;;;;4950035;28;20101;-83
2022/11/23 12:43:57;;;;;;;7.80;2.80;;;7.70;99.90;;;;;;4952060;28;20027;-82
2022/11/23 12:46:44;;;;;;;13.63;3.58;;;7.70;99.90;;;;;;4943588;29;20039;-83
2022/11/23 12:49:37;;;;;;;11.55;3.33;;;7.70;99.90;;;;;;4946104;28;20026;-81
2022/11/23 12:52:29;;;;;;;54.38;20.70;;;7.80;99.90;;;;;;4947423;28;20046;-84
2022/11/23 12:55:23;;;;;;;21.13;8.20;;;7.70;99.90;;;;;;4939265;29;20047;-82
2022/11/23 12:58:03;;;;;;;16.65;6.78;;;7.70;99.90;;;;;;4945386;28;20499;-82
2022/11/23 13:00:43;;;;;;;15.60;6.25;;;7.70;99.90;;;;;;4945516;28;20468;-82
2022/11/23 13:03:51;;;;;;;16.55;4.65;;;7.70;99.90;;;;;;4946027;28;20492;-82
2022/11/23 13:06:58;;;;;;;13.05;2.78;;;7.60;99.90;;;;;;4946959;28;20035;-82
2022/11/23 13:09:55;;;;;;;7.38;4.10;;;7.60;99.90;;;;;;4947907;29;20093;-82